sensor_id;sensor_type;location;lat;lon;timestamp;pressure;altitude;pressure_sealevel;temperature;humidity
6216;BME280;3141;49.234;9.326;2024-02-28T00:00:33;99674.28;;;12.10;62.52
6216;BME280;3141;49.234;9.326;2024-02-28T00:01:16;99670.28;;;11.90;63.03
6216;BME280;3141;49.234;9.326;2024-02-28T00:01:58;99676.44;;;11.98;62.97
6216;BME280;3141;49.234;9.326;2024-02-28T00:02:41;99670.81;;;12.09;63.00
6216;BME280;3141;49.234;9.326;2024-02-28T00:03:23;99672.94;;;12.14;62.75
6216;BME280;3141;49.234;9.326;2024-02-28T00:04:06;99671.31;;;12.13;62.87
6216;BME280;3141;49.234;9.326;2024-02-28T00:04:48;99664.16;;;12.13;62.46
6216;BME280;3141;49.234;9.326;2024-02-28T00:05:31;99668.97;;;12.02;62.80
6216;BME280;3141;49.234;9.326;2024-02-28T00:06:16;99671.97;;;11.91;62.79
6216;BME280;3141;49.234;9.326;2024-02-28T00:06:58;99676.09;;;11.93;63.15
6216;BME280;3141;49.234;9.326;2024-02-28T00:07:41;99678.56;;;11.95;63.17
6216;BME280;3141;49.234;9.326;2024-02-28T00:08:23;99672.78;;;11.91;63.11
6216;BME280;3141;49.234;9.326;2024-02-28T00:09:05;99677.59;;;11.96;63.11
6216;BME280;3141;49.234;9.326;2024-02-28T00:09:48;99678.44;;;12.04;62.59
6216;BME280;3141;49.234;9.326;2024-02-28T00:10:32;99679.91;;;11.99;62.91
6216;BME280;3141;49.234;9.326;2024-02-28T00:11:14;99681.88;;;11.97;63.10
6216;BME280;3141;49.234;9.326;2024-02-28T00:11:56;99683.53;;;11.98;63.20
6216;BME280;3141;49.234;9.326;2024-02-28T00:12:39;99679.56;;;12.02;63.40
6216;BME280;3141;49.234;9.326;2024-02-28T00:13:22;99676.25;;;12.00;62.83
6216;BME280;3141;49.234;9.326;2024-02-28T00:14:05;99684.53;;;11.89;63.15
6216;BME280;3141;49.234;9.326;2024-02-28T00:14:47;99681.88;;;11.81;63.21
6216;BME280;3141;49.234;9.326;2024-02-28T00:15:29;99682.88;;;11.72;63.57
6216;BME280;3141;49.234;9.326;2024-02-28T00:16:12;99681.88;;;11.81;63.62
6216;BME280;3141;49.234;9.326;2024-02-28T00:16:54;99683.38;;;11.91;63.31
6216;BME280;3141;49.234;9.326;2024-02-28T00:17:40;99681.88;;;11.97;63.60
6216;BME280;3141;49.234;9.326;2024-02-28T00:18:23;99690.16;;;12.02;63.44
6216;BME280;3141;49.234;9.326;2024-02-28T00:19:05;99689.34;;;12.01;63.00
6216;BME280;3141;49.234;9.326;2024-02-28T00:19:48;99678.72;;;12.01;62.77
6216;BME280;3141;49.234;9.326;2024-02-28T00:20:30;99690.34;;;12.08;62.77
6216;BME280;3141;49.234;9.326;2024-02-28T00:21:13;99685.53;;;12.12;62.58
6216;BME280;3141;49.234;9.326;2024-02-28T00:21:56;99686.03;;;11.99;62.26
6216;BME280;3141;49.234;9.326;2024-02-28T00:22:38;99691.69;;;12.04;62.75
6216;BME280;3141;49.234;9.326;2024-02-28T00:23:20;99692.31;;;12.06;62.73
6216;BME280;3141;49.234;9.326;2024-02-28T00:24:03;99688.00;;;12.13;62.61
6216;BME280;3141;49.234;9.326;2024-02-28T00:24:45;99684.72;;;12.19;62.60
6216;BME280;3141;49.234;9.326;2024-02-28T00:25:28;99692.00;;;12.09;62.50
6216;BME280;3141;49.234;9.326;2024-02-28T00:26:12;99694.50;;;12.11;62.61
6216;BME280;3141;49.234;9.326;2024-02-28T00:26:54;99695.16;;;12.13;62.72
6216;BME280;3141;49.234;9.326;2024-02-28T00:27:36;99693.31;;;12.13;62.52
6216;BME280;3141;49.234;9.326;2024-02-28T00:28:19;99688.69;;;12.15;62.51
6216;BME280;3141;49.234;9.326;2024-02-28T00:29:01;99682.41;;;12.16;62.70
6216;BME280;3141;49.234;9.326;2024-02-28T00:29:44;99689.69;;;12.22;62.58
6216;BME280;3141;49.234;9.326;2024-02-28T00:30:26;99690.34;;;12.24;62.25
6216;BME280;3141;49.234;9.326;2024-02-28T00:31:10;99690.34;;;12.24;62.26
6216;BME280;3141;49.234;9.326;2024-02-28T00:31:53;99692.50;;;12.21;62.42
6216;BME280;3141;49.234;9.326;2024-02-28T00:32:35;99700.44;;;12.21;62.53
6216;BME280;3141;49.234;9.326;2024-02-28T00:33:17;99695.47;;;12.26;62.75
6216;BME280;3141;49.234;9.326;2024-02-28T00:33:59;99697.13;;;12.19;62.73
6216;BME280;3141;49.234;9.326;2024-02-28T00:34:42;99697.97;;;12.19;62.59
6216;BME280;3141;49.234;9.326;2024-02-28T00:35:24;99697.97;;;12.19;62.69
6216;BME280;3141;49.234;9.326;2024-02-28T00:36:07;99702.78;;;12.16;62.43
6216;BME280;3141;49.234;9.326;2024-02-28T00:36:49;99704.59;;;12.15;62.73
6216;BME280;3141;49.234;9.326;2024-02-28T00:37:31;99707.41;;;12.06;62.95
6216;BME280;3141;49.234;9.326;2024-02-28T00:38:14;99708.88;;;12.08;62.49
6216;BME280;3141;49.234;9.326;2024-02-28T00:38:56;99701.09;;;11.91;62.74
6216;BME280;3141;49.234;9.326;2024-02-28T00:39:38;99704.59;;;11.99;62.86
6216;BME280;3141;49.234;9.326;2024-02-28T00:40:21;99707.56;;;12.04;62.81
6216;BME280;3141;49.234;9.326;2024-02-28T00:41:03;99702.59;;;12.09;62.76
6216;BME280;3141;49.234;9.326;2024-02-28T00:41:45;99706.44;;;12.15;62.77
6216;BME280;3141;49.234;9.326;2024-02-28T00:42:28;99713.03;;;12.19;62.62
6216;BME280;3141;49.234;9.326;2024-02-28T00:43:10;99707.09;;;12.25;62.63
6216;BME280;3141;49.234;9.326;2024-02-28T00:43:52;99712.19;;;12.18;62.10
6216;BME280;3141;49.234;9.326;2024-02-28T00:44:35;99707.75;;;12.11;62.71
6216;BME280;3141;49.234;9.326;2024-02-28T00:45:17;99711.03;;;12.05;62.74
6216;BME280;3141;49.234;9.326;2024-02-28T00:45:59;99704.72;;;11.98;62.78
6216;BME280;3141;49.234;9.326;2024-02-28T00:46:42;99712.03;;;11.96;63.13
6216;BME280;3141;49.234;9.326;2024-02-28T00:47:24;99714.34;;;11.91;63.37
6216;BME280;3141;49.234;9.326;2024-02-28T00:48:06;99711.03;;;11.97;63.34
6216;BME280;3141;49.234;9.326;2024-02-28T00:48:49;99704.22;;;11.78;63.41
6216;BME280;3141;49.234;9.326;2024-02-28T00:49:31;99707.16;;;11.67;63.50
6216;BME280;3141;49.234;9.326;2024-02-28T00:50:13;99701.34;;;11.63;63.84
6216;BME280;3141;49.234;9.326;2024-02-28T00:50:56;99701.31;;;11.47;63.90
6216;BME280;3141;49.234;9.326;2024-02-28T00:51:38;99707.59;;;11.54;64.11
6216;BME280;3141;49.234;9.326;2024-02-28T00:52:20;99708.00;;;11.68;63.63
6216;BME280;3141;49.234;9.326;2024-02-28T00:53:03;99711.63;;;11.67;63.33
6216;BME280;3141;49.234;9.326;2024-02-28T00:53:45;99707.34;;;11.74;63.46
6216;BME280;3141;49.234;9.326;2024-02-28T00:54:27;99704.69;;;11.74;63.55
6216;BME280;3141;49.234;9.326;2024-02-28T00:55:10;99709.84;;;11.75;63.12
6216;BME280;3141;49.234;9.326;2024-02-28T00:55:52;99705.53;;;11.66;62.75
6216;BME280;3141;49.234;9.326;2024-02-28T00:56:34;99707.28;;;11.57;63.49
6216;BME280;3141;49.234;9.326;2024-02-28T00:57:17;99713.88;;;11.53;63.75
6216;BME280;3141;49.234;9.326;2024-02-28T00:57:59;99708.34;;;11.65;63.23
6216;BME280;3141;49.234;9.326;2024-02-28T00:58:44;99712.28;;;11.69;63.33
6216;BME280;3141;49.234;9.326;2024-02-28T00:59:26;99709.66;;;11.69;63.23
6216;BME280;3141;49.234;9.326;2024-02-28T01:00:09;99708.69;;;11.78;62.73
6216;BME280;3141;49.234;9.326;2024-02-28T01:00:52;99706.38;;;11.83;62.59
6216;BME280;3141;49.234;9.326;2024-02-28T01:01:34;99710.53;;;11.93;62.35
6216;BME280;3141;49.234;9.326;2024-02-28T01:02:16;99709.22;;;11.97;62.53
6216;BME280;3141;49.234;9.326;2024-02-28T01:02:58;99714.34;;;11.99;62.19
6216;BME280;3141;49.234;9.326;2024-02-28T01:03:41;99712.03;;;11.96;62.37
6216;BME280;3141;49.234;9.326;2024-02-28T01:04:23;99708.34;;;11.81;63.33
6216;BME280;3141;49.234;9.326;2024-02-28T01:05:06;99709.34;;;11.80;63.86
6216;BME280;3141;49.234;9.326;2024-02-28T01:05:49;99711.66;;;11.83;63.81
6216;BME280;3141;49.234;9.326;2024-02-28T01:06:31;99709.34;;;11.80;64.17
6216;BME280;3141;49.234;9.326;2024-02-28T01:07:14;99711.31;;;11.78;64.58
6216;BME280;3141;49.234;9.326;2024-02-28T01:07:56;99720.41;;;11.67;65.66
6216;BME280;3141;49.234;9.326;2024-02-28T01:08:38;99707.16;;;11.67;65.45
6216;BME280;3141;49.234;9.326;2024-02-28T01:09:21;99716.97;;;11.75;65.95
6216;BME280;3141;49.234;9.326;2024-02-28T01:10:04;99716.28;;;11.73;66.56
6216;BME280;3141;49.234;9.326;2024-02-28T01:10:46;99714.31;;;11.75;66.48
6216;BME280;3141;49.234;9.326;2024-02-28T01:11:29;99717.13;;;11.73;66.71
6216;BME280;3141;49.234;9.326;2024-02-28T01:12:11;99722.72;;;11.70;66.85
6216;BME280;3141;49.234;9.326;2024-02-28T01:12:53;99721.41;;;11.74;66.64
6216;BME280;3141;49.234;9.326;2024-02-28T01:13:36;99708.25;;;11.56;66.66
6216;BME280;3141;49.234;9.326;2024-02-28T01:14:18;99717.22;;;11.63;66.82
6216;BME280;3141;49.234;9.326;2024-02-28T01:15:00;99714.22;;;11.58;66.86
6216;BME280;3141;49.234;9.326;2024-02-28T01:15:43;99716.53;;;11.61;66.63
6216;BME280;3141;49.234;9.326;2024-02-28T01:16:25;99715.78;;;11.69;65.94
6216;BME280;3141;49.234;9.326;2024-02-28T01:17:07;99718.25;;;11.71;65.56
6216;BME280;3141;49.234;9.326;2024-02-28T01:17:50;99715.31;;;11.82;65.08
6216;BME280;3141;49.234;9.326;2024-02-28T01:18:32;99725.41;;;11.78;64.75
6216;BME280;3141;49.234;9.326;2024-02-28T01:19:15;99718.13;;;11.88;64.52
6216;BME280;3141;49.234;9.326;2024-02-28T01:19:58;99720.25;;;11.69;64.00
6216;BME280;3141;49.234;9.326;2024-02-28T01:20:40;99715.78;;;11.69;64.21
6216;BME280;3141;49.234;9.326;2024-02-28T01:21:23;99722.25;;;11.75;64.11
6216;BME280;3141;49.234;9.326;2024-02-28T01:22:05;99716.28;;;11.73;64.41
6216;BME280;3141;49.234;9.326;2024-02-28T01:22:47;99720.91;;;11.79;63.93
6216;BME280;3141;49.234;9.326;2024-02-28T01:23:30;99720.28;;;11.77;63.98
6216;BME280;3141;49.234;9.326;2024-02-28T01:24:12;99719.28;;;11.78;63.68
6216;BME280;3141;49.234;9.326;2024-02-28T01:24:55;99719.09;;;11.79;63.93
6216;BME280;3141;49.234;9.326;2024-02-28T01:25:37;99717.75;;;11.67;64.03
6216;BME280;3141;49.234;9.326;2024-02-28T01:26:19;99714.13;;;11.68;64.03
6216;BME280;3141;49.234;9.326;2024-02-28T01:27:04;99715.78;;;11.69;64.43
6216;BME280;3141;49.234;9.326;2024-02-28T01:27:46;99717.63;;;11.77;64.03
6216;BME280;3141;49.234;9.326;2024-02-28T01:28:28;99721.25;;;11.68;64.30
6216;BME280;3141;49.234;9.326;2024-02-28T01:29:11;99721.41;;;11.66;64.17
6216;BME280;3141;49.234;9.326;2024-02-28T01:29:54;99721.50;;;11.56;65.16
6216;BME280;3141;49.234;9.326;2024-02-28T01:30:36;99714.22;;;11.58;65.03
6216;BME280;3141;49.234;9.326;2024-02-28T01:31:18;99715.75;;;11.61;64.79
6216;BME280;3141;49.234;9.326;2024-02-28T01:32:01;99715.63;;;11.71;64.71
6216;BME280;3141;49.234;9.326;2024-02-28T01:32:43;99714.31;;;11.75;64.30
6216;BME280;3141;49.234;9.326;2024-02-28T01:33:25;99711.00;;;11.81;63.56
6216;BME280;3141;49.234;9.326;2024-02-28T01:34:08;99717.63;;;11.77;63.64
6216;BME280;3141;49.234;9.326;2024-02-28T01:34:50;99718.09;;;11.72;63.89
6216;BME280;3141;49.234;9.326;2024-02-28T01:35:32;99711.72;;;11.49;64.33
6216;BME280;3141;49.234;9.326;2024-02-28T01:36:15;99717.53;;;11.60;64.11
6216;BME280;3141;49.234;9.326;2024-02-28T01:36:57;99714.56;;;11.63;63.84
6216;BME280;3141;49.234;9.326;2024-02-28T01:37:39;99710.59;;;11.59;64.29
6216;BME280;3141;49.234;9.326;2024-02-28T01:38:22;99718.75;;;11.74;63.76
6216;BME280;3141;49.234;9.326;2024-02-28T01:39:04;99712.25;;;11.60;64.07
6216;BME280;3141;49.234;9.326;2024-02-28T01:39:46;99714.38;;;11.49;64.20
6216;BME280;3141;49.234;9.326;2024-02-28T01:40:29;99713.38;;;11.50;63.90
6216;BME280;3141;49.234;9.326;2024-02-28T01:41:11;99716.81;;;11.42;64.37
6216;BME280;3141;49.234;9.326;2024-02-28T01:41:53;99717.13;;;11.39;64.52
6216;BME280;3141;49.234;9.326;2024-02-28T01:42:36;99716.47;;;11.37;64.44
6216;BME280;3141;49.234;9.326;2024-02-28T01:43:19;99706.84;;;11.28;64.55
6216;BME280;3141;49.234;9.326;2024-02-28T01:44:03;99716.44;;;11.29;64.53
6216;BME280;3141;49.234;9.326;2024-02-28T01:44:47;99710.91;;;11.15;64.59
6216;BME280;3141;49.234;9.326;2024-02-28T01:45:30;99711.47;;;11.26;64.57
6216;BME280;3141;49.234;9.326;2024-02-28T01:46:20;99713.97;;;11.36;64.25
6216;BME280;3141;49.234;9.326;2024-02-28T01:47:04;99711.00;;;11.39;64.38
6216;BME280;3141;49.234;9.326;2024-02-28T01:47:47;99707.72;;;11.37;63.84
6216;BME280;3141;49.234;9.326;2024-02-28T01:48:32;99720.13;;;11.36;64.26
6216;BME280;3141;49.234;9.326;2024-02-28T01:49:16;99713.53;;;11.40;64.18
6216;BME280;3141;49.234;9.326;2024-02-28T01:49:59;99712.88;;;11.54;63.58
6216;BME280;3141;49.234;9.326;2024-02-28T01:50:41;99711.25;;;11.53;63.66
6216;BME280;3141;49.234;9.326;2024-02-28T01:51:25;99705.25;;;11.51;63.45
6216;BME280;3141;49.234;9.326;2024-02-28T01:52:11;99707.03;;;11.35;63.96
6216;BME280;3141;49.234;9.326;2024-02-28T01:52:55;99699.63;;;11.46;64.21
6216;BME280;3141;49.234;9.326;2024-02-28T01:53:37;99706.63;;;11.55;63.55
6216;BME280;3141;49.234;9.326;2024-02-28T01:54:20;99701.81;;;11.59;63.49
6216;BME280;3141;49.234;9.326;2024-02-28T01:55:02;99707.16;;;11.67;63.54
6216;BME280;3141;49.234;9.326;2024-02-28T01:55:45;99703.31;;;11.61;63.39
6216;BME280;3141;49.234;9.326;2024-02-28T01:56:27;99695.34;;;11.53;63.57
6216;BME280;3141;49.234;9.326;2024-02-28T01:57:10;99702.00;;;11.57;63.46
6216;BME280;3141;49.234;9.326;2024-02-28T01:57:53;99697.03;;;11.62;63.80
6216;BME280;3141;49.234;9.326;2024-02-28T01:58:36;99696.19;;;11.62;63.40
6216;BME280;3141;49.234;9.326;2024-02-28T01:59:18;99693.88;;;11.59;63.30
6216;BME280;3141;49.234;9.326;2024-02-28T02:00:01;99697.19;;;11.61;63.71
6216;BME280;3141;49.234;9.326;2024-02-28T02:00:45;99695.34;;;11.61;63.36
6216;BME280;3141;49.234;9.326;2024-02-28T02:01:28;99700.31;;;11.48;63.60
6216;BME280;3141;49.234;9.326;2024-02-28T02:02:10;99707.59;;;11.54;63.97
6216;BME280;3141;49.234;9.326;2024-02-28T02:02:53;99696.56;;;11.25;64.09
6216;BME280;3141;49.234;9.326;2024-02-28T02:03:35;99701.06;;;11.25;64.94
6216;BME280;3141;49.234;9.326;2024-02-28T02:04:17;99698.25;;;11.34;64.73
6216;BME280;3141;49.234;9.326;2024-02-28T02:05:00;99696.81;;;11.48;63.96
6216;BME280;3141;49.234;9.326;2024-02-28T02:05:43;99706.28;;;11.58;63.84
6216;BME280;3141;49.234;9.326;2024-02-28T02:06:26;99707.13;;;11.59;63.55
6216;BME280;3141;49.234;9.326;2024-02-28T02:07:08;99703.97;;;11.55;63.96
6216;BME280;3141;49.234;9.326;2024-02-28T02:07:51;99703.56;;;11.34;64.51
6216;BME280;3141;49.234;9.326;2024-02-28T02:08:34;99711.50;;;11.34;64.79
6216;BME280;3141;49.234;9.326;2024-02-28T02:09:17;99704.22;;;11.36;65.06
6216;BME280;3141;49.234;9.326;2024-02-28T02:09:59;99700.59;;;11.37;64.78
6216;BME280;3141;49.234;9.326;2024-02-28T02:10:42;99703.19;;;11.21;64.69
6216;BME280;3141;49.234;9.326;2024-02-28T02:11:24;99709.94;;;11.16;65.15
6216;BME280;3141;49.234;9.326;2024-02-28T02:12:07;99713.03;;;11.11;65.48
6216;BME280;3141;49.234;9.326;2024-02-28T02:12:49;99710.25;;;11.13;65.39
6216;BME280;3141;49.234;9.326;2024-02-28T02:13:32;99708.25;;;11.15;65.40
6216;BME280;3141;49.234;9.326;2024-02-28T02:14:14;99710.28;;;11.21;64.91
6216;BME280;3141;49.234;9.326;2024-02-28T02:14:57;99714.03;;;11.10;65.25
6216;BME280;3141;49.234;9.326;2024-02-28T02:15:39;99712.56;;;11.08;65.71
6216;BME280;3141;49.234;9.326;2024-02-28T02:16:21;99713.66;;;10.97;65.61
6216;BME280;3141;49.234;9.326;2024-02-28T02:17:09;99706.09;;;10.77;66.01
6216;BME280;3141;49.234;9.326;2024-02-28T02:17:51;99715.47;;;10.71;66.68
6216;BME280;3141;49.234;9.326;2024-02-28T02:18:34;99714.69;;;10.79;66.40
6216;BME280;3141;49.234;9.326;2024-02-28T02:19:16;99722.25;;;10.99;65.65
6216;BME280;3141;49.234;9.326;2024-02-28T02:19:58;99719.88;;;10.88;65.47
6216;BME280;3141;49.234;9.326;2024-02-28T02:20:43;99712.13;;;10.95;65.65
6216;BME280;3141;49.234;9.326;2024-02-28T02:21:30;99715.34;;;11.06;65.35
6216;BME280;3141;49.234;9.326;2024-02-28T02:22:13;99721.19;;;11.18;64.99
6216;BME280;3141;49.234;9.326;2024-02-28T02:22:57;99728.66;;;11.22;64.84
6216;BME280;3141;49.234;9.326;2024-02-28T02:23:40;99720.16;;;11.11;64.34
6216;BME280;3141;49.234;9.326;2024-02-28T02:24:24;99724.28;;;11.13;65.05
6216;BME280;3141;49.234;9.326;2024-02-28T02:25:06;99727.63;;;11.15;64.69
6216;BME280;3141;49.234;9.326;2024-02-28T02:25:49;99733.94;;;10.89;65.17
6216;BME280;3141;49.234;9.326;2024-02-28T02:26:31;99722.41;;;10.98;65.00
6216;BME280;3141;49.234;9.326;2024-02-28T02:27:13;99726.56;;;11.00;64.96
6216;BME280;3141;49.234;9.326;2024-02-28T02:27:56;99730.59;;;11.12;64.59
6216;BME280;3141;49.234;9.326;2024-02-28T02:28:38;99730.59;;;11.12;64.28
6216;BME280;3141;49.234;9.326;2024-02-28T02:29:20;99725.47;;;11.11;64.55
6216;BME280;3141;49.234;9.326;2024-02-28T02:30:03;99735.34;;;11.01;64.74
6216;BME280;3141;49.234;9.326;2024-02-28T02:30:45;99733.03;;;11.06;64.92
6216;BME280;3141;49.234;9.326;2024-02-28T02:31:29;99739.00;;;11.08;64.98
6216;BME280;3141;49.234;9.326;2024-02-28T02:32:12;99740.97;;;11.06;64.96
6216;BME280;3141;49.234;9.326;2024-02-28T02:32:54;99743.63;;;11.06;64.81
6216;BME280;3141;49.234;9.326;2024-02-28T02:33:37;99743.97;;;11.11;64.41
6216;BME280;3141;49.234;9.326;2024-02-28T02:34:19;99755.81;;;10.99;64.95
6216;BME280;3141;49.234;9.326;2024-02-28T02:35:03;99753.00;;;11.00;65.07
6216;BME280;3141;49.234;9.326;2024-02-28T02:35:45;99750.41;;;11.08;64.70
6216;BME280;3141;49.234;9.326;2024-02-28T02:36:27;99755.84;;;11.07;64.59
6216;BME280;3141;49.234;9.326;2024-02-28T02:37:10;99753.03;;;11.08;64.79
6216;BME280;3141;49.234;9.326;2024-02-28T02:37:52;99753.25;;;11.15;64.43
6216;BME280;3141;49.234;9.326;2024-02-28T02:38:34;99758.25;;;11.18;64.20
6216;BME280;3141;49.234;9.326;2024-02-28T02:39:17;99756.47;;;11.26;64.07
6216;BME280;3141;49.234;9.326;2024-02-28T02:39:59;99757.28;;;11.27;63.88
6216;BME280;3141;49.234;9.326;2024-02-28T02:40:41;99760.72;;;11.19;64.24
6216;BME280;3141;49.234;9.326;2024-02-28T02:41:24;99760.19;;;11.08;64.56
6216;BME280;3141;49.234;9.326;2024-02-28T02:42:06;99758.00;;;11.11;64.59
6216;BME280;3141;49.234;9.326;2024-02-28T02:42:48;99760.41;;;11.22;64.49
6216;BME280;3141;49.234;9.326;2024-02-28T02:43:31;99764.34;;;11.18;64.27
6216;BME280;3141;49.234;9.326;2024-02-28T02:44:13;99761.84;;;11.17;64.38
6216;BME280;3141;49.234;9.326;2024-02-28T02:44:55;99770.94;;;11.14;64.70
6216;BME280;3141;49.234;9.326;2024-02-28T02:45:37;99767.00;;;11.18;64.56
6216;BME280;3141;49.234;9.326;2024-02-28T02:46:20;99767.63;;;11.12;64.63
6216;BME280;3141;49.234;9.326;2024-02-28T02:47:02;99774.53;;;11.05;64.83
6216;BME280;3141;49.234;9.326;2024-02-28T02:47:44;99766.00;;;11.19;64.45
6216;BME280;3141;49.234;9.326;2024-02-28T02:48:27;99767.72;;;11.28;64.55
6216;BME280;3141;49.234;9.326;2024-02-28T02:49:09;99764.44;;;11.34;64.09
6216;BME280;3141;49.234;9.326;2024-02-28T02:49:52;99772.34;;;11.26;64.13
6216;BME280;3141;49.234;9.326;2024-02-28T02:50:34;99772.63;;;11.23;64.10
6216;BME280;3141;49.234;9.326;2024-02-28T02:51:16;99766.34;;;11.16;64.03
6216;BME280;3141;49.234;9.326;2024-02-28T02:52:00;99774.63;;;11.21;63.99
6216;BME280;3141;49.234;9.326;2024-02-28T02:52:42;99776.41;;;11.13;64.62
6216;BME280;3141;49.234;9.326;2024-02-28T02:53:24;99773.59;;;11.14;64.74
6216;BME280;3141;49.234;9.326;2024-02-28T02:54:07;99774.31;;;11.24;64.33
6216;BME280;3141;49.234;9.326;2024-02-28T02:54:49;99777.72;;;11.17;64.43
6216;BME280;3141;49.234;9.326;2024-02-28T02:55:31;99776.28;;;11.22;64.30
6216;BME280;3141;49.234;9.326;2024-02-28T02:56:14;99779.19;;;11.11;64.52
6216;BME280;3141;49.234;9.326;2024-02-28T02:56:56;99780.84;;;11.12;64.63
6216;BME280;3141;49.234;9.326;2024-02-28T02:57:39;99786.47;;;11.09;64.51
6216;BME280;3141;49.234;9.326;2024-02-28T02:58:22;99782.00;;;11.10;64.66
6216;BME280;3141;49.234;9.326;2024-02-28T02:59:04;99786.75;;;11.06;65.07
6216;BME280;3141;49.234;9.326;2024-02-28T02:59:46;99781.88;;;11.19;64.74
6216;BME280;3141;49.234;9.326;2024-02-28T03:00:29;99785.09;;;11.31;64.34
6216;BME280;3141;49.234;9.326;2024-02-28T03:01:11;99790.91;;;11.34;64.50
6216;BME280;3141;49.234;9.326;2024-02-28T03:01:53;99788.59;;;11.39;63.78
6216;BME280;3141;49.234;9.326;2024-02-28T03:02:36;99789.09;;;11.35;63.67
6216;BME280;3141;49.234;9.326;2024-02-28T03:03:21;99789.41;;;11.06;64.93
6216;BME280;3141;49.234;9.326;2024-02-28T03:04:04;99794.84;;;10.79;65.27
6216;BME280;3141;49.234;9.326;2024-02-28T03:04:46;99790.19;;;10.99;65.05
6216;BME280;3141;49.234;9.326;2024-02-28T03:05:28;99797.06;;;11.09;64.99
6216;BME280;3141;49.234;9.326;2024-02-28T03:06:11;99792.88;;;11.07;64.70
6216;BME280;3141;49.234;9.326;2024-02-28T03:06:53;99800.16;;;11.05;64.92
6216;BME280;3141;49.234;9.326;2024-02-28T03:07:35;99801.81;;;11.06;64.53
6216;BME280;3141;49.234;9.326;2024-02-28T03:08:18;99796.97;;;11.01;64.86
6216;BME280;3141;49.234;9.326;2024-02-28T03:09:00;99803.28;;;11.00;64.90
6216;BME280;3141;49.234;9.326;2024-02-28T03:09:42;99801.34;;;11.10;64.77
6216;BME280;3141;49.234;9.326;2024-02-28T03:10:25;99808.16;;;11.13;64.14
6216;BME280;3141;49.234;9.326;2024-02-28T03:11:07;99802.91;;;11.21;64.25
6216;BME280;3141;49.234;9.326;2024-02-28T03:11:50;99807.72;;;11.25;63.91
6216;BME280;3141;49.234;9.326;2024-02-28T03:12:33;99808.75;;;11.32;63.66
6216;BME280;3141;49.234;9.326;2024-02-28T03:13:15;99806.59;;;11.28;63.47
6216;BME280;3141;49.234;9.326;2024-02-28T03:13:57;99803.41;;;11.24;63.82
6216;BME280;3141;49.234;9.326;2024-02-28T03:14:40;99803.91;;;11.20;64.00
6216;BME280;3141;49.234;9.326;2024-02-28T03:15:22;99807.31;;;11.12;64.02
6216;BME280;3141;49.234;9.326;2024-02-28T03:16:05;99813.66;;;11.19;63.98
6216;BME280;3141;49.234;9.326;2024-02-28T03:16:47;99807.34;;;11.20;64.23
6216;BME280;3141;49.234;9.326;2024-02-28T03:17:31;99810.63;;;11.14;64.45
6216;BME280;3141;49.234;9.326;2024-02-28T03:18:13;99816.09;;;11.13;64.15
6216;BME280;3141;49.234;9.326;2024-02-28T03:18:56;99808.25;;;11.03;64.63
6216;BME280;3141;49.234;9.326;2024-02-28T03:19:38;99804.31;;;11.07;64.28
6216;BME280;3141;49.234;9.326;2024-02-28T03:20:21;99812.50;;;10.96;65.05
6216;BME280;3141;49.234;9.326;2024-02-28T03:21:03;99808.63;;;10.91;65.22
6216;BME280;3141;49.234;9.326;2024-02-28T03:21:46;99816.91;;;10.88;65.35
6216;BME280;3141;49.234;9.326;2024-02-28T03:22:28;99806.47;;;10.86;65.88
6216;BME280;3141;49.234;9.326;2024-02-28T03:23:11;99806.78;;;10.83;66.25
6216;BME280;3141;49.234;9.326;2024-02-28T03:23:53;99809.22;;;10.77;66.55
6216;BME280;3141;49.234;9.326;2024-02-28T03:24:36;99811.03;;;10.76;66.92
6216;BME280;3141;49.234;9.326;2024-02-28T03:25:18;99810.81;;;10.70;67.36
6216;BME280;3141;49.234;9.326;2024-02-28T03:26:00;99811.34;;;10.73;67.52
6216;BME280;3141;49.234;9.326;2024-02-28T03:26:42;99813.31;;;10.71;67.90
6216;BME280;3141;49.234;9.326;2024-02-28T03:27:25;99813.53;;;10.78;68.26
6216;BME280;3141;49.234;9.326;2024-02-28T03:28:08;99807.34;;;10.69;68.57
6216;BME280;3141;49.234;9.326;2024-02-28T03:28:50;99812.94;;;10.66;68.99
6216;BME280;3141;49.234;9.326;2024-02-28T03:29:33;99810.88;;;10.60;69.42
6216;BME280;3141;49.234;9.326;2024-02-28T03:30:15;99811.72;;;10.61;69.74
6216;BME280;3141;49.234;9.326;2024-02-28T03:30:57;99812.84;;;10.58;69.57
6216;BME280;3141;49.234;9.326;2024-02-28T03:31:40;99812.03;;;10.58;69.97
6216;BME280;3141;49.234;9.326;2024-02-28T03:32:22;99813.38;;;10.62;69.39
6216;BME280;3141;49.234;9.326;2024-02-28T03:33:05;99815.66;;;10.57;69.79
6216;BME280;3141;49.234;9.326;2024-02-28T03:33:47;99817.03;;;10.61;70.19
6216;BME280;3141;49.234;9.326;2024-02-28T03:34:30;99823.78;;;10.63;69.88
6216;BME280;3141;49.234;9.326;2024-02-28T03:35:12;99812.56;;;10.61;69.76
6216;BME280;3141;49.234;9.326;2024-02-28T03:35:54;99824.94;;;10.61;69.78
6216;BME280;3141;49.234;9.326;2024-02-28T03:36:37;99824.56;;;10.56;70.21
6216;BME280;3141;49.234;9.326;2024-02-28T03:37:19;99817.41;;;10.48;70.54
6216;BME280;3141;49.234;9.326;2024-02-28T03:38:01;99819.72;;;10.51;70.15
6216;BME280;3141;49.234;9.326;2024-02-28T03:38:43;99826.31;;;10.47;70.21
6216;BME280;3141;49.234;9.326;2024-02-28T03:39:26;99827.66;;;10.51;70.25
6216;BME280;3141;49.234;9.326;2024-02-28T03:40:08;99821.47;;;10.60;70.07
6216;BME280;3141;49.234;9.326;2024-02-28T03:40:51;99825.16;;;10.67;69.85
6216;BME280;3141;49.234;9.326;2024-02-28T03:41:33;99826.00;;;10.50;70.32
6216;BME280;3141;49.234;9.326;2024-02-28T03:42:15;99831.59;;;10.47;70.41
6216;BME280;3141;49.234;9.326;2024-02-28T03:42:58;99824.03;;;10.52;70.53
6216;BME280;3141;49.234;9.326;2024-02-28T03:43:41;99830.44;;;10.49;70.38
6216;BME280;3141;49.234;9.326;2024-02-28T03:44:23;99839.59;;;10.55;70.38
6216;BME280;3141;49.234;9.326;2024-02-28T03:45:07;99838.06;;;10.70;69.92
6216;BME280;3141;49.234;9.326;2024-02-28T03:45:50;99834.84;;;10.59;70.06
6216;BME280;3141;49.234;9.326;2024-02-28T03:46:32;99825.78;;;10.43;70.83
6216;BME280;3141;49.234;9.326;2024-02-28T03:47:15;99830.00;;;10.36;71.25
6216;BME280;3141;49.234;9.326;2024-02-28T03:47:57;99827.81;;;10.32;71.08
6216;BME280;3141;49.234;9.326;2024-02-28T03:48:39;99831.44;;;10.31;71.32
6216;BME280;3141;49.234;9.326;2024-02-28T03:49:22;99835.00;;;10.39;70.86
6216;BME280;3141;49.234;9.326;2024-02-28T03:50:05;99825.47;;;10.46;70.73
6216;BME280;3141;49.234;9.326;2024-02-28T03:50:47;99830.22;;;10.43;70.55
6216;BME280;3141;49.234;9.326;2024-02-28T03:51:31;99837.78;;;10.38;70.54
6216;BME280;3141;49.234;9.326;2024-02-28T03:52:14;99836.78;;;10.39;70.61